Time;durP1;ratioP1;P1;durP2;ratioP2;P2;SDS_P1;SDS_P2;PMS_P1;PMS_P2;Temp;Humidity;BMP_temperature;BMP_pressure;BME280_temperature;BME280_humidity;BME280_pressure;Samples;Min_cycle;Max_cycle;Signal;HPM_P1;HPM_P2
2021/07/18 00:01:42;;;;;;;;;5.00;4.75;;;;;22.86;100.00;102098.75;4958353;28;45614;-67
2021/07/18 00:04:07;;;;;;;;;5.50;5.00;;;;;22.84;100.00;102096.13;4958519;28;45394;-67
2021/07/18 00:06:33;;;;;;;;;6.25;5.25;;;;;22.77;100.00;102083.13;4957996;28;46531;-67
2021/07/18 00:08:58;;;;;;;;;5.25;5.00;;;;;22.81;100.00;102090.94;4958122;28;45492;-67
2021/07/18 00:11:24;;;;;;;;;6.00;6.00;;;;;22.78;100.00;102092.84;4958351;28;45355;-67
2021/07/18 00:13:49;;;;;;;;;6.75;5.75;;;;;22.73;100.00;102087.72;4958387;28;45373;-69
2021/07/18 00:16:15;;;;;;;;;7.00;7.00;;;;;22.72;100.00;102088.66;4958346;28;45519;-67
2021/07/18 00:18:40;;;;;;;;;8.00;6.00;;;;;22.69;100.00;102080.81;4957830;28;45388;-67
2021/07/18 00:21:05;;;;;;;;;8.25;6.25;;;;;22.68;100.00;102083.53;4940610;28;45456;-66
2021/07/18 00:23:31;;;;;;;;;6.75;6.25;;;;;22.59;100.00;102082.97;4940780;28;45337;-66
2021/07/18 00:29:18;;;;;;;;;6.00;6.00;;;;;22.60;100.00;102084.72;4956995;28;45807;-69
2021/07/18 00:31:43;;;;;;;;;6.75;6.50;;;;;22.53;100.00;102082.38;4958032;28;45365;-66
2021/07/18 00:34:09;;;;;;;;;7.50;6.00;;;;;22.57;100.00;102092.84;4958103;28;45367;-68
2021/07/18 00:36:36;;;;;;;;;6.25;5.50;;;;;22.46;100.00;102083.59;4957706;28;47516;-66
2021/07/18 00:39:02;;;;;;;;;6.00;6.00;;;;;22.55;100.00;102099.16;4957569;28;45376;-70
2021/07/18 00:44:49;;;;;;;;;7.75;6.75;;;;;22.29;100.00;102068.31;4958051;28;45437;-69
2021/07/18 00:47:14;;;;;;;;;5.75;5.50;;;;;22.46;100.00;102103.09;4957665;28;46101;-68
2021/07/18 00:49:40;;;;;;;;;8.00;6.75;;;;;22.22;100.00;102059.75;4957532;28;45463;-67
2021/07/18 00:52:06;;;;;;;;;6.25;5.75;;;;;22.34;100.00;102090.28;4957787;28;45428;-68
2021/07/18 00:54:32;;;;;;;;;6.00;5.75;;;;;22.34;100.00;102092.06;4957683;28;45372;-68
2021/07/18 00:56:59;;;;;;;;;8.50;7.00;;;;;22.33;100.00;102085.03;4957210;28;47434;-67
2021/07/18 00:59:25;;;;;;;;;4.75;4.75;;;;;22.37;100.00;102097.28;4957356;28;45414;-66
2021/07/18 01:01:51;;;;;;;;;7.50;5.75;;;;;22.22;100.00;102070.38;4957419;28;45319;-68
2021/07/18 01:04:16;;;;;;;;;6.00;6.00;;;;;22.28;100.00;102087.88;4957770;28;45547;-66
2021/07/18 01:06:42;;;;;;;;;5.25;4.50;;;;;22.29;100.00;102098.47;4939861;28;48450;-67
2021/07/18 01:09:07;;;;;;;;;5.00;5.00;;;;;22.28;100.00;102094.06;4957241;28;45416;-67
2021/07/18 01:14:54;;;;;;;;;4.75;4.00;;;;;22.20;100.00;102087.34;4961146;28;45329;-67
2021/07/18 01:17:20;;;;;;;;;7.00;6.00;;;;;22.12;100.00;102082.31;4960119;28;47200;-68
2021/07/18 01:19:45;;;;;;;;;6.75;5.75;;;;;22.16;100.00;102093.69;4960902;28;45305;-67
2021/07/18 01:22:11;;;;;;;;;4.75;4.75;;;;;22.15;100.00;102099.94;4960655;28;45289;-67
2021/07/18 01:24:36;;;;;;;;;8.75;6.75;;;;;22.12;100.00;102097.41;4960639;28;45440;-67
2021/07/18 01:27:04;;;;;;;;;6.75;5.75;;;;;22.10;100.00;102097.47;4960410;28;47421;-67
2021/07/18 01:29:31;;;;;;;;;7.25;6.25;;;;;22.08;100.00;102091.38;4960113;28;45620;-68
2021/07/18 01:31:58;;;;;;;;;5.00;5.00;;;;;22.10;100.00;102093.97;4960392;28;45539;-67
2021/07/18 01:34:23;;;;;;;;;5.00;5.00;;;;;22.06;100.00;102090.56;4960881;28;45561;-67
2021/07/18 01:36:49;;;;;;;;;5.25;4.50;;;;;22.06;100.00;102092.34;4960472;28;45605;-67
2021/07/18 01:39:15;;;;;;;;;7.25;5.00;;;;;22.04;100.00;102081.78;4960298;28;45364;-66
2021/07/18 01:45:02;;;;;;;;;4.50;3.75;;;;;21.92;100.00;102069.78;4960460;28;45353;-67
2021/07/18 01:47:28;;;;;;;;;6.00;5.50;;;;;21.98;100.00;102079.34;4959896;28;46646;-68
2021/07/18 01:49:53;;;;;;;;;4.75;4.75;;;;;21.94;100.00;102089.22;4960136;28;45364;-67
2021/07/18 01:52:18;;;;;;;;;5.00;5.00;;;;;21.94;100.00;102083.91;4960283;28;45322;-67
2021/07/18 01:54:44;;;;;;;;;6.25;6.00;;;;;21.89;100.00;102079.69;4960143;28;45463;-66
2021/07/18 01:57:14;;;;;;;;;6.75;6.00;;;;;21.91;100.00;102086.69;4959856;28;46642;-66
2021/07/18 01:59:40;;;;;;;;;7.50;7.50;;;;;21.82;100.00;102073.78;4959836;28;45489;-66
2021/07/18 02:02:06;;;;;;;;;5.00;5.00;;;;;21.87;100.00;102089.53;4960144;28;45431;-66
2021/07/18 02:04:31;;;;;;;;;5.00;5.00;;;;;21.80;100.00;102077.41;4960221;28;45390;-65
2021/07/18 02:06:57;;;;;;;;;5.00;4.00;;;;;21.84;100.00;102081.69;4959845;28;46199;-69
2021/07/18 02:09:22;;;;;;;;;5.75;5.75;;;;;21.82;100.00;102087.06;4959890;28;45508;-67
2021/07/18 02:15:12;;;;;;;;;6.00;6.00;;;;;21.73;100.00;102076.81;4960087;28;45420;-66
2021/07/18 02:17:37;;;;;;;;;7.00;6.00;;;;;21.70;100.00;102076.91;4942048;28;47703;-67
2021/07/18 02:20:11;;;;;;;;;4.50;4.25;;;;;21.73;100.00;102074.16;4959940;28;45457;-66
2021/07/18 02:22:51;;;;;;;;;5.75;5.00;;;;;21.73;100.00;102075.91;4959209;28;45435;-66
2021/07/18 02:25:18;;;;;;;;;6.25;5.75;;;;;21.68;100.00;102074.31;4959762;28;45325;-66
2021/07/18 02:27:44;;;;;;;;;7.00;5.75;;;;;21.63;100.00;102070.09;4959514;28;46372;-66
2021/07/18 02:30:12;;;;;;;;;6.00;5.75;;;;;21.67;100.00;102085.00;4959414;28;45476;-67
2021/07/18 02:32:38;;;;;;;;;4.00;4.00;;;;;21.64;100.00;102083.31;4959742;28;45439;-67
2021/07/18 02:35:05;;;;;;;;;6.25;6.25;;;;;21.64;100.00;102085.13;4959591;28;45399;-67
2021/07/18 02:37:31;;;;;;;;;4.00;4.00;;;;;21.55;100.00;102067.75;4959274;28;47692;-65
2021/07/18 02:39:56;;;;;;;;;5.75;4.50;;;;;21.54;100.00;102070.47;4959289;28;45375;-66
2021/07/18 02:42:21;;;;;;;;;4.25;4.25;;;;;21.49;100.00;102065.31;4959601;28;45260;-66
2021/07/18 02:44:47;;;;;;;;;6.25;5.75;;;;;21.54;100.00;102079.31;4959985;28;45363;-69
2021/07/18 02:47:12;;;;;;;;;5.75;5.00;;;;;21.52;100.00;102070.53;4959363;28;46604;-67
2021/07/18 02:49:37;;;;;;;;;6.00;5.75;;;;;21.42;100.00;102060.28;4959186;28;45300;-68
2021/07/18 02:52:04;;;;;;;;;4.75;4.75;;;;;21.43;100.00;102065.56;4959542;28;45377;-67
2021/07/18 02:54:30;;;;;;;;;6.25;5.00;;;;;21.46;100.00;102073.41;4959430;28;45527;-67
2021/07/18 03:00:21;;;;;;;;;6.25;5.25;;;;;21.41;100.00;102067.41;4959263;28;45490;-68
2021/07/18 03:02:47;;;;;;;;;5.25;5.25;;;;;21.34;100.00;102061.47;4959258;28;45432;-67
2021/07/18 03:05:14;;;;;;;;;8.25;6.50;;;;;21.36;100.00;102066.72;4959163;28;45337;-66
2021/07/18 03:07:41;;;;;;;;;4.00;4.00;;;;;21.33;100.00;102070.38;4958863;28;46508;-67
2021/07/18 03:10:08;;;;;;;;;4.75;4.75;;;;;21.27;100.00;102064.38;4958943;28;45323;-66
2021/07/18 03:12:34;;;;;;;;;7.25;6.25;;;;;21.12;100.00;102039.25;4958984;28;45451;-67
2021/07/18 03:15:01;;;;;;;;;5.75;5.75;;;;;21.24;100.00;102061.84;4959511;28;45408;-67
2021/07/18 03:17:26;;;;;;;;;4.75;4.75;;;;;21.18;100.00;102056.75;4958810;28;46122;-66
2021/07/18 03:19:52;;;;;;;;;5.75;5.25;;;;;21.17;100.00;102058.53;4958669;28;45380;-66
2021/07/18 03:22:18;;;;;;;;;7.75;7.00;;;;;21.22;100.00;102068.97;4958998;28;45412;-66
2021/07/18 03:24:43;;;;;;;;;6.75;6.00;;;;;21.19;100.00;102075.28;4959122;28;45458;-67
2021/07/18 03:30:30;;;;;;;;;6.00;5.25;;;;;21.08;100.00;102059.75;4956706;28;45409;-67
2021/07/18 03:32:55;;;;;;;;;6.25;5.25;;;;;21.09;100.00;102066.81;4958731;28;45392;-67
2021/07/18 03:35:21;;;;;;;;;6.25;6.25;;;;;21.06;100.00;102064.25;4958348;28;45566;-67
2021/07/18 03:37:46;;;;;;;;;8.00;5.50;;;;;21.05;100.00;102066.97;4958366;28;47319;-67
2021/07/18 03:40:14;;;;;;;;;6.50;5.75;;;;;21.06;100.00;102071.38;4958623;28;45367;-67
2021/07/18 03:42:41;;;;;;;;;6.25;5.50;;;;;21.03;100.00;102059.03;4958639;28;45549;-67
2021/07/18 03:45:08;;;;;;;;;8.50;6.50;;;;;20.95;100.00;102053.16;4958530;28;45365;-69
2021/07/18 03:47:35;;;;;;;;;7.25;5.50;;;;;20.99;100.00;102069.84;4958489;28;46764;-67
2021/07/18 03:50:00;;;;;;;;;5.75;5.75;;;;;20.93;100.00;102057.66;4958251;28;45388;-67
2021/07/18 03:52:26;;;;;;;;;7.00;5.75;;;;;20.92;100.00;102055.91;4958733;28;45661;-67
2021/07/18 03:54:51;;;;;;;;;6.75;5.50;;;;;20.89;100.00;102057.81;4958666;28;45348;-67
2021/07/18 04:00:38;;;;;;;;;6.25;5.50;;;;;20.84;100.00;102065.97;4958179;28;45301;-67
2021/07/18 04:03:03;;;;;;;;;5.75;5.75;;;;;20.85;100.00;102064.19;4958465;28;45326;-67
2021/07/18 04:05:28;;;;;;;;;5.00;4.75;;;;;20.82;100.00;102067.81;4958262;28;45559;-67
2021/07/18 04:07:54;;;;;;;;;4.75;4.75;;;;;20.80;100.00;102070.50;4957834;28;46591;-67
2021/07/18 04:10:19;;;;;;;;;7.00;6.00;;;;;20.77;100.00;102069.72;4957880;28;45430;-67
2021/07/18 04:12:46;;;;;;;;;5.25;5.00;;;;;20.73;100.00;102058.38;4958082;28;45392;-67
2021/07/18 04:15:13;;;;;;;;;5.75;5.50;;;;;20.78;100.00;102082.94;4958318;28;45523;-67
2021/07/18 04:17:39;;;;;;;;;6.50;6.25;;;;;20.67;100.00;102055.06;4957719;28;46867;-67
2021/07/18 04:20:06;;;;;;;;;6.25;4.75;;;;;20.78;100.00;102074.13;4958085;28;45323;-66
2021/07/18 04:22:31;;;;;;;;;6.75;5.00;;;;;20.77;100.00;102073.25;4956670;28;45401;-66
2021/07/18 04:24:57;;;;;;;;;8.75;6.00;;;;;20.76;100.00;102073.31;4958284;28;45241;-66
2021/07/18 04:30:44;;;;;;;;;7.00;6.50;;;;;20.78;100.00;102079.44;4957065;28;45500;-67
2021/07/18 04:33:10;;;;;;;;;7.50;6.00;;;;;20.63;100.00;102058.75;4940239;28;45409;-67
2021/07/18 04:35:36;;;;;;;;;5.00;5.00;;;;;20.78;100.00;102079.44;4957989;28;45382;-66
2021/07/18 04:38:06;;;;;;;;;7.75;6.00;;;;;20.70;100.00;102076.19;4957390;28;46439;-67
2021/07/18 04:40:32;;;;;;;;;7.00;4.75;;;;;20.76;100.00;102092.75;4957457;28;45584;-67
2021/07/18 04:42:58;;;;;;;;;7.00;7.00;;;;;20.77;100.00;102088.31;4958029;28;45470;-67
2021/07/18 04:45:23;;;;;;;;;6.25;5.75;;;;;20.63;100.00;102064.94;4957592;28;45384;-66
2021/07/18 04:47:55;;;;;;;;;7.75;6.25;;;;;20.70;100.00;102070.88;4957464;28;46218;-67
2021/07/18 04:50:22;;;;;;;;;7.00;6.00;;;;;20.80;100.00;102086.41;4957445;28;45466;-67
2021/07/18 04:52:48;;;;;;;;;5.75;5.75;;;;;20.76;100.00;102082.13;4957576;28;45464;-67
2021/07/18 04:55:15;;;;;;;;;7.00;6.00;;;;;20.83;100.00;102092.56;4957913;28;45448;-66
2021/07/18 05:01:02;;;;;;;;;6.00;5.00;;;;;20.84;100.00;102099.59;4957306;28;45369;-66
2021/07/18 05:03:27;;;;;;;;;6.50;5.75;;;;;20.84;100.00;102095.16;4957280;28;45446;-67
2021/07/18 05:05:52;;;;;;;;;6.25;5.00;;;;;20.78;100.00;102098.00;4957648;28;45444;-66
2021/07/18 05:08:18;;;;;;;;;5.25;5.25;;;;;20.82;100.00;102097.00;4957540;28;46292;-67
2021/07/18 05:10:43;;;;;;;;;5.25;5.25;;;;;20.86;100.00;102093.31;4957262;28;45701;-66
2021/07/18 05:13:09;;;;;;;;;5.50;5.50;;;;;20.86;100.00;102092.44;4957185;28;45673;-66
2021/07/18 05:15:35;;;;;;;;;8.00;6.00;;;;;20.92;100.00;102109.03;4957327;28;45261;-66
2021/07/18 05:18:10;;;;;;;;;5.00;4.75;;;;;20.95;100.00;102102.72;4956661;28;45328;-66
2021/07/18 05:20:35;;;;;;;;;5.00;5.00;;;;;20.95;100.00;102100.94;4957095;28;45329;-67
2021/07/18 05:23:01;;;;;;;;;4.75;4.25;;;;;20.92;100.00;102097.53;4957297;28;45442;-67
2021/07/18 05:25:27;;;;;;;;;4.00;3.75;;;;;21.02;100.00;102115.72;4957307;28;45461;-70
2021/07/18 05:31:14;;;;;;;;;4.00;4.00;;;;;21.09;100.00;102111.09;4956099;28;45585;-67
2021/07/18 05:33:40;;;;;;;;;5.50;5.25;;;;;21.10;100.00;102111.03;4956741;28;45316;-67
2021/07/18 05:36:10;;;;;;;;;6.00;5.00;;;;;21.04;100.00;102097.06;4957076;28;45569;-66
2021/07/18 05:38:37;;;;;;;;;5.75;4.75;;;;;21.17;100.00;102106.34;4957058;28;46459;-66
2021/07/18 05:41:02;;;;;;;;;2.50;2.50;;;;;21.14;100.00;102098.50;4956729;28;45416;-67
2021/07/18 05:43:28;;;;;;;;;7.25;4.75;;;;;21.24;100.00;102105.22;4957028;28;45421;-67
2021/07/18 05:45:53;;;;;;;;;6.00;5.00;;;;;21.26;100.00;102108.69;4956912;28;45447;-67
2021/07/18 05:48:23;;;;;;;;;4.75;4.25;;;;;21.33;100.00;102109.34;4956611;28;46290;-67
2021/07/18 05:50:49;;;;;;;;;5.75;4.50;;;;;21.36;100.00;102110.09;4957090;28;45538;-68
2021/07/18 05:53:14;;;;;;;;;5.25;3.75;;;;;21.37;100.00;102103.84;4956993;28;45637;-68
2021/07/18 05:55:40;;;;;;;;;5.00;5.00;;;;;21.40;100.00;102101.09;4956935;28;45415;-68
2021/07/18 06:01:26;;;;;;;;;4.25;3.50;;;;;21.52;100.00;102114.84;4960066;28;45421;-67
2021/07/18 06:03:52;;;;;;;;;6.00;5.00;;;;;21.55;100.00;102109.41;4960003;28;45405;-67
2021/07/18 06:06:17;;;;;;;;;6.25;4.50;;;;;21.55;100.00;102104.97;4960357;28;45316;-67
2021/07/18 06:08:42;;;;;;;;;5.00;4.00;;;;;21.60;100.00;102107.44;4959738;28;46647;-67
2021/07/18 06:11:08;;;;;;;;;9.25;6.25;;;;;21.62;100.00;102105.59;4942367;28;45262;-67
2021/07/18 06:13:33;;;;;;;;;6.25;5.00;;;;;21.70;100.00;102114.13;4959839;28;45296;-67
2021/07/18 06:15:58;;;;;;;;;5.50;5.00;;;;;21.72;100.00;102109.59;4960202;28;45470;-66
2021/07/18 06:18:24;;;;;;;;;5.00;4.50;;;;;21.78;100.00;102113.84;4959705;28;45455;-67
2021/07/18 06:20:49;;;;;;;;;5.25;3.75;;;;;21.78;100.00;102105.88;4959831;28;45446;-66
2021/07/18 06:23:15;;;;;;;;;4.25;4.00;;;;;21.84;100.00;102114.44;4959837;28;45463;-67
2021/07/18 06:25:40;;;;;;;;;6.50;4.75;;;;;21.74;100.00;102098.94;4960153;28;45471;-67
2021/07/18 06:31:27;;;;;;;;;4.50;3.75;;;;;21.96;100.00;102121.97;4958804;28;45349;-67
2021/07/18 06:33:53;;;;;;;;;5.75;5.75;;;;;21.95;100.00;102119.34;4959612;28;45352;-67
2021/07/18 06:36:19;;;;;;;;;6.00;6.00;;;;;21.97;100.00;102117.50;4960002;28;45468;-67
2021/07/18 06:38:44;;;;;;;;;4.00;4.00;;;;;22.02;100.00;102118.19;4957930;28;47328;-67
2021/07/18 06:41:10;;;;;;;;;4.25;4.25;;;;;21.94;100.00;102104.31;4959370;28;45423;-67
2021/07/18 06:43:35;;;;;;;;;4.50;4.50;;;;;22.09;100.00;102122.34;4959686;28;45341;-67
2021/07/18 06:46:00;;;;;;;;;5.25;4.75;;;;;22.07;100.00;102108.25;4959477;28;45538;-67
2021/07/18 06:48:26;;;;;;;;;6.00;4.25;;;;;22.16;100.00;102126.50;4959107;28;45400;-67
2021/07/18 06:50:51;;;;;;;;;4.50;3.75;;;;;22.16;100.00;102113.19;4959474;28;45408;-68
2021/07/18 06:53:16;;;;;;;;;5.00;5.00;;;;;22.18;100.00;102114.03;4959120;28;45451;-67
2021/07/18 06:55:42;;;;;;;;;4.50;4.00;;;;;22.23;100.00;102109.38;4959580;28;45586;-66
2021/07/18 07:01:29;;;;;;;;;5.50;4.50;;;;;22.37;100.00;102121.22;4959191;28;45694;-67
2021/07/18 07:03:55;;;;;;;;;7.00;5.00;;;;;22.43;100.00;102126.31;4958886;28;45400;-67
2021/07/18 07:06:20;;;;;;;;;6.50;5.75;;;;;22.43;100.00;102119.19;4959618;28;45324;-67
2021/07/18 07:08:45;;;;;;;;;4.00;4.00;;;;;22.44;100.00;102120.94;4957699;28;45576;-67
2021/07/18 07:11:11;;;;;;;;;4.50;4.50;;;;;22.51;100.00;102116.19;4959192;28;45405;-67
2021/07/18 07:13:36;;;;;;;;;5.50;5.00;;;;;22.48;100.00;102109.22;4958790;28;45344;-67
2021/07/18 07:16:02;;;;;;;;;5.50;4.50;;;;;22.60;100.00;102114.00;4959081;28;45495;-66
2021/07/18 07:18:27;;;;;;;;;6.00;4.75;;;;;22.60;100.00;102113.13;4958778;28;46330;-67
2021/07/18 07:20:53;;;;;;;;;6.25;4.25;;;;;22.73;100.00;102121.47;4959098;28;45402;-67
2021/07/18 07:23:18;;;;;;;;;4.00;4.00;;;;;22.75;100.00;102111.63;4958932;28;45379;-66
2021/07/18 07:25:43;;;;;;;;;4.25;4.00;;;;;22.82;100.00;102118.44;4958760;28;45388;-66
2021/07/18 07:31:30;;;;;;;;;4.50;3.25;;;;;22.87;100.00;102117.31;4958096;28;45622;-67
2021/07/18 07:33:56;;;;;;;;;4.00;4.00;;;;;22.94;100.00;102128.56;4958620;28;45798;-69
2021/07/18 07:36:22;;;;;;;;;4.00;4.00;;;;;22.97;100.00;102122.25;4958928;28;45351;-68
2021/07/18 07:38:48;;;;;;;;;4.50;4.50;;;;;23.01;100.00;102118.50;4958318;28;46360;-67
2021/07/18 07:41:13;;;;;;;;;3.50;3.50;;;;;23.02;100.00;102115.78;4958565;28;45750;-67
2021/07/18 07:47:00;;;;;;;;;2.50;2.50;;;;;23.05;100.00;102106.78;4958776;28;45400;-67
2021/07/18 07:49:26;;;;;;;;;4.00;4.00;;;;;23.12;100.00;102110.91;4958158;28;45806;-68
2021/07/18 07:51:51;;;;;;;;;5.00;4.00;;;;;23.19;100.00;102115.03;4957947;28;45500;-68
2021/07/18 07:54:17;;;;;;;;;4.00;4.00;;;;;23.15;100.00;102105.44;4958618;28;45828;-66
2021/07/18 07:56:42;;;;;;;;;3.50;3.50;;;;;23.28;100.00;102122.59;4958557;28;45627;-66
2021/07/18 07:59:08;;;;;;;;;4.00;4.00;;;;;23.34;100.00;102116.13;4957531;28;46564;-66
2021/07/18 08:01:33;;;;;;;;;5.00;4.25;;;;;23.41;100.00;102128.25;4957448;28;45393;-68
2021/07/18 08:03:59;;;;;;;;;3.25;3.00;;;;;23.42;100.00;102113.97;4958049;28;45629;-68
2021/07/18 08:06:24;;;;;;;;;3.25;3.00;;;;;23.46;100.00;102118.22;4957921;28;45480;-70
2021/07/18 08:08:50;;;;;;;;;4.00;4.00;;;;;23.51;100.00;102116.19;4958415;28;45498;-66
2021/07/18 08:11:15;;;;;;;;;2.50;2.50;;;;;23.58;100.00;102119.50;4958171;28;45313;-67
2021/07/18 08:17:03;;;;;;;;;3.00;3.00;;;;;23.68;100.00;102108.31;4958073;28;45397;-65
2021/07/18 08:19:29;;;;;;;;;4.00;4.00;;;;;23.75;100.00;102117.75;4957426;28;47676;-65
2021/07/18 08:21:54;;;;;;;;;3.00;2.00;;;;;23.76;100.00;102107.94;4957586;28;45294;-66
2021/07/18 08:24:19;;;;;;;;;3.75;3.75;;;;;23.84;100.00;102100.47;4957761;28;45328;-65
2021/07/18 08:26:45;;;;;;;;;4.75;4.75;;;;;23.95;100.00;102118.59;4957596;28;45397;-65
2021/07/18 08:29:10;;;;;;;;;4.00;3.00;;;;;23.96;100.00;102105.19;4957326;28;46242;-65
2021/07/18 08:31:35;;;;;;;;;3.75;3.50;;;;;24.09;100.00;102114.34;4956457;28;45488;-66
2021/07/18 08:34:01;;;;;;;;;2.75;2.75;;;;;24.17;100.00;102097.06;4956480;28;45314;-65
2021/07/18 08:36:27;;;;;;;;;4.50;3.50;;;;;24.28;100.00;102101.00;4956277;28;45349;-64
2021/07/18 08:38:52;;;;;;;;;4.00;3.75;;;;;24.39;100.00;102097.75;4956027;28;46703;-63
2021/07/18 08:41:21;;;;;;;;;4.25;3.50;;;;;24.57;100.00;102099.50;4956287;28;45340;-64
2021/07/18 08:47:08;;;;;;;;;3.00;3.00;;;;;24.93;100.00;102093.19;4956339;28;45334;-65
2021/07/18 08:49:34;;;;;;;;;4.00;3.00;;;;;25.00;100.00;102070.56;4955958;28;45568;-65
2021/07/18 08:52:00;;;;;;;;;3.00;2.00;;;;;25.27;100.00;102078.91;4956048;28;45550;-65
2021/07/18 08:54:26;;;;;;;;;3.25;3.00;;;;;25.40;100.00;102088.00;4956283;28;45403;-65
2021/07/18 08:56:55;;;;;;;;;2.00;1.50;;;;;25.57;100.00;102084.38;4956193;28;45311;-67
2021/07/18 08:59:21;;;;;;;;;2.00;2.00;;;;;25.68;100.00;102078.47;4955702;28;46201;-65
2021/07/18 09:01:46;;;;;;;;;3.00;3.00;;;;;25.87;100.00;102085.38;4955812;28;45300;-65
2021/07/18 09:04:12;;;;;;;;;4.50;3.00;;;;;26.02;100.00;102085.41;4955918;28;45462;-64
2021/07/18 09:06:47;;;;;;;;;3.00;3.00;;;;;26.11;100.00;102064.34;4956340;28;45329;-64
2021/07/18 09:09:17;;;;;;;;;3.00;2.75;;;;;26.28;100.00;102071.41;4955794;28;48003;-65
2021/07/18 09:18:27;;;;;;;;;2.00;1.25;;;;;26.84;100.00;102078.72;4858399;29;45461;-65
2021/07/18 09:20:55;;;;;;;;;2.00;0.00;;;;;26.98;100.00;102077.88;4858512;29;45477;-65
2021/07/18 09:23:24;;;;;;;;;1.50;1.00;;;;;27.10;100.00;102071.78;4842891;29;45471;-65
2021/07/18 09:25:49;;;;;;;;;2.00;2.00;;;;;27.27;100.00;102069.88;4858255;29;45374;-64
2021/07/18 09:28:22;;;;;;;;;2.50;2.25;;;;;27.40;100.00;102069.00;4859011;29;45374;-64
2021/07/18 09:30:50;;;;;;;;;1.25;1.25;;;;;27.60;100.00;102081.09;4819487;29;1152615;-66
2021/07/18 09:33:25;;;;;;;;;2.00;2.00;;;;;27.74;100.00;102070.38;4861957;29;45373;-64
2021/07/18 09:36:08;;;;;;;;;1.25;1.00;;;;;27.95;100.00;102083.34;4863133;29;45483;-68
2021/07/18 09:38:33;;;;;;;;;1.00;1.00;;;;;28.09;100.00;102066.34;4862724;29;45658;-64
2021/07/18 09:40:59;;;;;;;;;1.50;1.00;;;;;28.27;100.00;102071.34;4862447;29;46288;-64
2021/07/18 09:43:28;;;;;;;;;2.00;2.00;;;;;28.46;100.00;102064.72;4862914;29;45360;-64
2021/07/18 09:46:06;;;;;;;;;1.75;1.25;;;;;28.69;100.00;102066.69;4863110;29;45425;-64
2021/07/18 09:48:39;;;;;;;;;1.50;1.00;;;;;28.94;100.00;102068.53;4862943;29;45547;-64
2021/07/18 09:51:10;;;;;;;;;1.00;1.00;;;;;29.14;100.00;102064.44;4889748;28;47586;-64
2021/07/18 09:53:36;;;;;;;;;2.50;1.00;;;;;29.44;100.00;102066.78;4960577;28;45812;-63
2021/07/18 09:56:18;;;;;;;;;1.00;1.00;;;;;29.78;100.00;102071.41;4960627;28;45551;-68
2021/07/18 09:58:57;;;;;;;;;1.50;1.50;;;;;30.15;100.00;102053.41;4960658;28;45336;-65
2021/07/18 10:01:24;;;;;;;;;1.00;1.00;;;;;30.62;100.00;102058.81;4960004;28;46426;-65
2021/07/18 10:03:52;;;;;;;;;0.50;0.50;;;;;31.13;100.00;102053.81;4959906;28;45615;-65
2021/07/18 10:06:20;;;;;;;;;2.00;2.00;;;;;31.80;100.00;102061.03;4960252;28;45455;-66
2021/07/18 10:08:47;;;;;;;;;2.50;1.75;;;;;32.55;100.00;102058.22;4960564;28;45374;-65
2021/07/18 10:11:15;;;;;;;;;2.00;1.75;;;;;33.40;100.00;102057.97;4959741;28;46112;-63
2021/07/18 10:13:42;;;;;;;;;1.75;1.75;;;;;34.49;100.00;102056.94;4959838;28;45533;-67
2021/07/18 10:16:09;;;;;;;;;1.75;1.00;;;;;35.67;100.00;102049.91;4960377;28;45466;-65
2021/07/18 10:18:40;;;;;;;;;3.25;2.25;;;;;37.01;99.17;102051.50;4959741;28;45292;-67
2021/07/18 10:21:10;;;;;;;;;2.75;2.75;;;;;38.03;93.29;102034.13;4959647;28;46170;-67
2021/07/18 10:23:43;;;;;;;;;3.00;2.25;;;;;38.77;88.29;102042.06;4959607;28;45463;-66
2021/07/18 10:26:13;;;;;;;;;3.00;2.75;;;;;38.73;85.14;102040.72;4960047;28;45383;-66
2021/07/18 10:28:39;;;;;;;;;3.00;3.00;;;;;38.03;83.39;102056.78;4960089;28;45309;-66
2021/07/18 10:31:10;;;;;;;;;2.00;2.00;;;;;37.08;85.02;102055.28;4959579;28;46758;-66
2021/07/18 10:33:36;;;;;;;;;5.50;4.50;;;;;36.29;88.93;102058.16;4959838;28;45508;-71
2021/07/18 10:36:03;;;;;;;;;2.25;2.00;;;;;35.80;93.52;102052.25;4959795;28;45341;-74
2021/07/18 10:38:34;;;;;;;;;3.25;3.25;;;;;35.70;96.77;102055.00;4960081;28;45632;-77
2021/07/18 10:41:00;;;;;;;;;2.75;2.75;;;;;36.24;93.76;102053.19;4959838;28;46281;-77
2021/07/18 10:43:36;;;;;;;;;2.50;2.50;;;;;37.31;91.27;102041.94;4959893;28;45265;-76
2021/07/18 10:46:07;;;;;;;;;4.50;4.00;;;;;38.49;86.73;102038.88;4959867;28;45446;-78
2021/07/18 10:48:52;;;;;;;;;3.75;3.00;;;;;39.77;83.41;102040.41;4959518;28;45383;-75
2021/07/18 10:51:34;;;;;;;;;2.00;2.00;;;;;40.63;80.52;102032.81;4959862;28;46156;-76
2021/07/18 10:54:19;;;;;;;;;4.75;4.25;;;;;41.10;79.18;102020.63;4959357;28;45521;-76
2021/07/18 10:56:47;;;;;;;;;3.00;3.00;;;;;41.97;73.78;102028.78;4959616;28;45471;-77
2021/07/18 10:59:34;;;;;;;;;3.25;3.25;;;;;42.93;73.10;102028.06;4959712;28;45385;-78
2021/07/18 11:02:11;;;;;;;;;3.25;3.00;;;;;43.70;70.92;102018.63;4959443;28;46275;-77
2021/07/18 11:04:53;;;;;;;;;5.00;4.00;;;;;44.31;68.64;102023.91;4959200;28;45251;-78
2021/07/18 11:07:21;;;;;;;;;3.75;3.75;;;;;44.68;67.69;102029.81;4959666;28;45549;-77
2021/07/18 11:09:50;;;;;;;;;4.00;4.00;;;;;44.97;66.45;102025.69;4959379;28;45427;-77
2021/07/18 11:15:26;;;;;;;;;4.00;4.00;;;;;45.78;62.35;102023.16;4880520;29;45616;-76
2021/07/18 11:18:11;;;;;;;;;3.00;3.00;;;;;46.24;60.78;102028.28;4880369;29;45446;-76
2021/07/18 11:20:40;;;;;;;;;4.00;4.00;;;;;46.87;59.57;102014.25;4880743;29;45595;-77
2021/07/18 11:23:07;;;;;;;;;2.25;2.25;;;;;47.56;57.28;102015.66;4880209;29;45533;-77
2021/07/18 11:25:43;;;;;;;;;4.50;2.75;;;;;48.21;53.03;102025.84;4880394;29;45481;-75
2021/07/18 11:31:35;;;;;;;;;4.75;4.25;;;;;47.38;55.44;102010.16;4880244;29;45482;-76
2021/07/18 11:34:04;;;;;;;;;4.50;3.00;;;;;46.32;57.03;101997.59;4880246;29;45582;-76
2021/07/18 11:36:32;;;;;;;;;4.00;4.00;;;;;45.27;58.46;101996.53;4864515;29;45957;-76
2021/07/18 11:38:59;;;;;;;;;2.25;2.25;;;;;44.31;60.52;101990.84;4880056;29;45627;-75
2021/07/18 11:41:29;;;;;;;;;4.00;3.25;;;;;43.28;62.22;101989.47;4880634;29;45652;-75
2021/07/18 11:47:19;;;;;;;;;4.00;4.00;;;;;41.52;65.90;101984.22;4879747;29;45649;-75
2021/07/18 11:49:49;;;;;;;;;5.25;4.50;;;;;40.95;67.92;101987.75;4880059;29;45400;-75
2021/07/18 11:52:16;;;;;;;;;4.50;4.00;;;;;40.50;68.69;101980.59;4919001;28;45492;-76
2021/07/18 11:54:43;;;;;;;;;5.25;5.00;;;;;40.40;76.20;101980.88;4957929;28;45764;-74
2021/07/18 11:57:11;;;;;;;;;5.00;3.50;;;;;40.38;88.79;101967.38;4958625;28;45235;-74
2021/07/18 12:03:00;;;;;;;;;4.00;4.00;;;;;39.81;88.85;101969.75;4958609;28;45269;-74
2021/07/18 12:05:27;;;;;;;;;4.00;4.00;;;;;40.23;86.08;101966.47;4958595;28;45440;-72
2021/07/18 12:08:05;;;;;;;;;3.75;3.75;;;;;40.37;79.96;101962.91;4958448;28;45576;-74
2021/07/18 12:10:31;;;;;;;;;3.25;3.25;;;;;40.11;77.91;101968.00;4958597;28;45436;-72
2021/07/18 12:12:56;;;;;;;;;4.00;4.00;;;;;39.62;76.20;101932.84;4958704;28;45491;-73
2021/07/18 12:15:22;;;;;;;;;5.50;5.00;;;;;39.61;78.39;101977.66;4958071;28;46463;-73
2021/07/18 12:17:47;;;;;;;;;4.75;4.75;;;;;39.45;77.22;101964.91;4958429;28;45262;-74
2021/07/18 12:20:22;;;;;;;;;4.75;4.00;;;;;39.53;77.94;101941.28;4957851;28;45379;-72
2021/07/18 12:22:47;;;;;;;;;3.25;3.25;;;;;40.05;75.93;101941.34;4958491;28;45386;-73
2021/07/18 12:25:18;;;;;;;;;5.25;5.00;;;;;41.12;73.80;101950.03;4958267;28;45553;-75
2021/07/18 12:27:44;;;;;;;;;4.75;4.75;;;;;42.37;69.41;101947.63;4958234;28;45553;-73
2021/07/18 12:30:09;;;;;;;;;4.00;4.00;;;;;43.49;63.45;101936.22;4958429;28;45368;-73
2021/07/18 12:32:35;;;;;;;;;6.50;3.75;;;;;44.98;61.86;101948.25;4957826;28;45281;-74
2021/07/18 12:35:01;;;;;;;;;3.00;3.00;;;;;46.49;57.52;101952.81;4957728;28;46286;-72
2021/07/18 12:37:32;;;;;;;;;3.00;3.00;;;;;47.75;52.91;101938.84;4957896;28;45396;-72
2021/07/18 12:40:03;;;;;;;;;3.25;3.00;;;;;48.98;48.17;101948.00;4957984;28;45441;-72